createdAt,value
2017-11-26T00:00:28.584Z,3.03
2017-11-26T00:01:30.172Z,2.93
2017-11-26T00:02:32.203Z,2.97
2017-11-26T00:03:33.493Z,3.80
2017-11-26T00:04:35.532Z,3.20
2017-11-26T00:05:36.839Z,3.07
2017-11-26T00:07:45.650Z,2.80
2017-11-26T00:08:46.958Z,3.43
2017-11-26T00:09:48.988Z,2.50
2017-11-26T00:10:50.278Z,3.37
2017-11-26T00:11:51.569Z,3.40
2017-11-26T00:12:54.698Z,3.20
2017-11-26T00:13:56.005Z,3.40
2017-11-26T00:14:58.061Z,3.00
2017-11-26T00:16:00.097Z,3.57
2017-11-26T00:17:02.127Z,3.37
2017-11-26T00:20:32.861Z,3.13
2017-11-26T00:21:34.340Z,2.77
2017-11-26T00:22:36.397Z,3.17
2017-11-26T00:23:38.454Z,3.10
2017-11-26T00:28:01.769Z,2.30
2017-11-26T00:29:03.081Z,2.57
2017-11-26T00:30:04.378Z,2.53
2017-11-26T00:31:05.674Z,2.73
2017-11-26T00:33:17.273Z,2.67
2017-11-26T00:34:19.346Z,2.50
2017-11-26T00:35:20.677Z,2.43
2017-11-26T00:36:21.971Z,2.00
2017-11-26T00:37:23.280Z,2.30
2017-11-26T00:38:25.698Z,1.90
2017-11-26T00:39:27.000Z,1.93
2017-11-26T00:40:28.306Z,2.30
2017-11-26T00:41:29.601Z,2.30
2017-11-26T00:42:30.901Z,1.93
2017-11-26T00:43:34.762Z,1.87
2017-11-26T00:44:36.064Z,2.10
2017-11-26T00:45:37.381Z,2.37
2017-11-26T00:46:39.463Z,3.00
2017-11-26T00:47:40.740Z,3.23
2017-11-26T00:48:42.364Z,3.00
2017-11-26T00:49:43.679Z,3.13
2017-11-26T00:50:44.954Z,3.40
2017-11-26T00:51:46.262Z,2.73
2017-11-26T00:52:47.584Z,2.80
2017-11-26T00:53:49.090Z,3.33
2017-11-26T00:54:50.372Z,3.50
2017-11-26T00:55:51.689Z,3.53
2017-11-26T00:56:53.763Z,3.50
2017-11-26T00:57:55.073Z,3.40
2017-11-26T00:58:57.143Z,2.80
2017-11-26T00:59:59.185Z,3.60
2017-11-26T01:01:01.230Z,3.20
2017-11-26T01:02:02.520Z,3.00
2017-11-26T01:03:03.820Z,3.40
2017-11-26T01:04:06.069Z,3.30
2017-11-26T01:05:08.101Z,4.17
2017-11-26T01:06:09.389Z,3.73
2017-11-26T01:07:10.673Z,4.13
2017-11-26T01:08:11.974Z,3.57
2017-11-26T01:09:13.561Z,3.93
2017-11-26T01:10:14.845Z,4.03
2017-11-26T01:11:16.149Z,3.17
2017-11-26T01:12:17.458Z,3.53
2017-11-26T01:13:18.753Z,3.37
2017-11-26T01:14:20.248Z,4.40
2017-11-26T01:15:21.538Z,4.70
2017-11-26T01:16:22.843Z,3.93
2017-11-26T01:17:24.141Z,4.40
2017-11-26T01:18:25.438Z,4.60
2017-11-26T01:19:27.018Z,3.73
2017-11-26T01:20:28.309Z,4.13
2017-11-26T01:21:30.337Z,4.40
2017-11-26T01:22:37.633Z,4.50
2017-11-26T01:23:38.919Z,4.00
2017-11-26T01:24:40.488Z,3.60
2017-11-26T01:25:41.789Z,4.80
2017-11-26T01:26:43.077Z,4.27
2017-11-26T01:27:44.374Z,4.27
2017-11-26T01:28:45.667Z,4.70
2017-11-26T01:29:47.984Z,4.20
2017-11-26T01:30:49.296Z,4.10
2017-11-26T01:31:50.597Z,3.53
2017-11-26T01:32:51.913Z,3.83
2017-11-26T01:33:53.216Z,4.70
2017-11-26T01:34:54.799Z,4.30
2017-11-26T01:35:56.102Z,4.43
2017-11-26T01:36:57.389Z,4.43
2017-11-26T01:37:58.710Z,3.97
2017-11-26T01:38:59.993Z,4.20
2017-11-26T01:40:01.656Z,3.93
2017-11-26T01:41:02.964Z,4.10
2017-11-26T01:42:05.021Z,4.03
2017-11-26T01:43:07.050Z,4.40
2017-11-26T01:44:08.342Z,3.83
2017-11-26T01:45:09.736Z,4.03
2017-11-26T01:46:11.051Z,4.00
2017-11-26T01:47:12.395Z,3.77
2017-11-26T01:48:13.697Z,4.37
2017-11-26T01:49:15.005Z,3.40
2017-11-26T01:50:17.602Z,4.03
2017-11-26T01:51:18.894Z,4.67
2017-11-26T01:52:20.962Z,4.07
2017-11-26T01:53:23.013Z,3.80
2017-11-26T01:54:25.076Z,4.30
2017-11-26T01:55:27.399Z,4.33
2017-11-26T01:56:28.738Z,3.80
2017-11-26T01:57:30.067Z,4.10
2017-11-26T01:58:31.393Z,4.27
2017-11-26T01:59:32.737Z,4.07
2017-11-26T02:00:34.464Z,4.53
2017-11-26T02:01:35.777Z,4.60
2017-11-26T02:02:37.837Z,4.57
2017-11-26T02:03:51.357Z,5.37
2017-11-26T02:04:52.676Z,4.67
2017-11-26T02:05:54.807Z,5.00
2017-11-26T02:06:56.152Z,5.97
2017-11-26T02:07:57.457Z,6.13
2017-11-26T02:08:58.833Z,5.90
2017-11-26T02:10:00.164Z,4.67
2017-11-26T02:11:01.754Z,4.17
2017-11-26T02:12:03.045Z,4.30
2017-11-26T02:13:04.387Z,5.50
2017-11-26T02:14:05.720Z,4.27
2017-11-26T02:15:07.011Z,4.40
2017-11-26T02:16:08.668Z,4.60
2017-11-26T02:17:09.982Z,4.10
2017-11-26T02:18:12.041Z,4.30
2017-11-26T02:19:13.402Z,4.67
2017-11-26T02:20:14.743Z,4.20
2017-11-26T02:21:16.390Z,5.37
2017-11-26T02:22:17.702Z,4.23
2017-11-26T02:23:19.072Z,5.53
2017-11-26T02:24:20.420Z,5.97
2017-11-26T02:25:21.761Z,5.60
2017-11-26T02:26:23.404Z,6.40
2017-11-26T02:27:24.733Z,6.97
2017-11-26T02:28:26.061Z,6.40
2017-11-26T02:29:27.437Z,6.90
2017-11-26T02:30:28.769Z,5.93
2017-11-26T02:31:43.368Z,6.10
2017-11-26T02:32:57.054Z,6.70
2017-11-26T02:34:10.739Z,7.37
2017-11-26T02:35:24.399Z,7.23
2017-11-26T02:36:25.736Z,6.47
2017-11-26T02:37:27.484Z,5.83
2017-11-26T02:38:28.793Z,7.53
2017-11-26T02:39:30.113Z,8.93
2017-11-26T02:40:31.449Z,7.57
2017-11-26T02:41:32.781Z,7.90
2017-11-26T02:42:35.189Z,8.50
2017-11-26T02:43:36.537Z,7.43
2017-11-26T02:44:37.890Z,7.33
2017-11-26T02:45:39.257Z,8.63
2017-11-26T02:46:41.333Z,8.07
2017-11-26T02:47:42.881Z,8.17
2017-11-26T02:48:44.226Z,8.53
2017-11-26T02:49:45.577Z,7.07
2017-11-26T02:50:46.922Z,7.77
2017-11-26T02:51:48.249Z,8.83
2017-11-26T02:52:49.871Z,6.83
2017-11-26T02:53:51.953Z,8.83
2017-11-26T02:54:54.049Z,8.17
2017-11-26T02:55:56.108Z,7.30
2017-11-26T02:56:57.440Z,7.47
2017-11-26T02:57:59.061Z,7.83
2017-11-26T02:59:00.373Z,8.30
2017-11-26T03:00:01.692Z,6.43
2017-11-26T03:01:03.009Z,7.30
2017-11-26T03:02:05.077Z,8.00
2017-11-26T03:03:07.650Z,7.50
2017-11-26T03:04:08.972Z,7.40
2017-11-26T03:05:11.011Z,7.20
2017-11-26T03:06:12.321Z,6.87
2017-11-26T03:07:14.363Z,8.53
2017-11-26T03:08:15.712Z,7.50
2017-11-26T03:09:16.991Z,7.67
2017-11-26T03:10:19.060Z,8.10
2017-11-26T03:11:21.140Z,7.53
2017-11-26T03:12:22.448Z,7.13
2017-11-26T03:13:24.790Z,7.60
2017-11-26T03:14:26.110Z,7.17
2017-11-26T03:15:27.431Z,7.00
2017-11-26T03:16:28.751Z,7.50
2017-11-26T03:17:30.078Z,6.17
2017-11-26T03:18:31.650Z,6.70
2017-11-26T03:19:32.955Z,7.13
2017-11-26T03:20:34.279Z,7.07
2017-11-26T03:21:36.366Z,7.47
2017-11-26T03:22:37.676Z,7.03
2017-11-26T03:23:40.114Z,7.00
2017-11-26T03:24:41.446Z,7.20
2017-11-26T03:25:42.770Z,7.20
2017-11-26T03:26:44.078Z,8.17
2017-11-26T03:27:45.416Z,6.97
2017-11-26T03:28:46.783Z,6.80
2017-11-26T03:29:48.868Z,7.20
2017-11-26T03:30:50.170Z,6.03
2017-11-26T03:31:51.473Z,6.80
2017-11-26T03:32:52.797Z,6.97
2017-11-26T03:33:55.118Z,6.90
2017-11-26T03:34:56.447Z,7.03
2017-11-26T03:35:57.755Z,6.70
2017-11-26T03:36:59.076Z,7.37
2017-11-26T03:38:01.125Z,8.00
2017-11-26T03:39:03.494Z,7.40
2017-11-26T03:40:05.556Z,7.47
2017-11-26T03:41:06.910Z,7.43
2017-11-26T03:42:08.218Z,8.27
2017-11-26T03:43:10.299Z,7.23
2017-11-26T03:44:11.952Z,7.27
2017-11-26T03:45:13.309Z,8.23
2017-11-26T03:46:14.639Z,7.97
2017-11-26T03:47:15.963Z,8.10
2017-11-26T03:48:17.270Z,7.73
2017-11-26T03:49:19.405Z,7.60
2017-11-26T03:50:20.699Z,8.40
2017-11-26T03:51:21.989Z,7.40
2017-11-26T03:52:23.295Z,8.07
2017-11-26T03:53:24.622Z,7.00
2017-11-26T03:54:26.213Z,7.80
2017-11-26T03:55:27.553Z,7.97
2017-11-26T03:56:29.587Z,8.43
2017-11-26T03:57:30.954Z,7.83
2017-11-26T03:58:33.041Z,6.07
2017-11-26T03:59:35.529Z,8.17
2017-11-26T04:00:36.873Z,7.07
2017-11-26T04:01:38.242Z,7.47
2017-11-26T04:02:39.547Z,8.70
2017-11-26T04:03:40.876Z,7.00
2017-11-26T04:04:42.496Z,8.57
2017-11-26T04:05:43.805Z,7.93
2017-11-26T04:06:45.854Z,8.50
2017-11-26T04:07:47.177Z,7.97
2017-11-26T04:08:48.509Z,9.03
2017-11-26T04:09:50.118Z,8.10
2017-11-26T04:10:51.432Z,7.90
2017-11-26T04:11:53.470Z,7.70
2017-11-26T04:12:54.802Z,6.20
2017-11-26T04:13:56.849Z,7.10
2017-11-26T04:14:58.437Z,7.70
2017-11-26T04:15:59.740Z,6.97
2017-11-26T04:17:01.080Z,6.90
2017-11-26T04:18:02.393Z,8.23
2017-11-26T04:19:03.719Z,6.47
2017-11-26T04:20:05.092Z,5.63
2017-11-26T04:21:06.404Z,6.47
2017-11-26T04:22:07.708Z,5.30
2017-11-26T04:23:09.001Z,4.70
2017-11-26T04:24:10.339Z,5.43
2017-11-26T04:25:11.938Z,5.63
2017-11-26T04:26:13.269Z,5.33
2017-11-26T04:27:14.593Z,5.53
2017-11-26T04:28:15.905Z,5.83
2017-11-26T04:29:17.955Z,5.47
2017-11-26T04:30:19.592Z,6.30
2017-11-26T04:31:20.889Z,6.60
2017-11-26T04:32:22.197Z,5.70
2017-11-26T04:33:24.249Z,5.23
2017-11-26T04:34:26.313Z,7.47
2017-11-26T04:35:28.033Z,6.17
2017-11-26T04:36:29.382Z,7.27
2017-11-26T04:37:31.439Z,6.10
2017-11-26T04:38:33.511Z,6.97
2017-11-26T04:39:34.830Z,6.83
2017-11-26T04:40:37.235Z,6.80
2017-11-26T04:41:38.543Z,8.30
2017-11-26T04:42:40.603Z,7.30
2017-11-26T04:43:42.660Z,7.27
2017-11-26T04:44:44.710Z,9.40
2017-11-26T04:45:47.049Z,8.20
2017-11-26T04:46:48.343Z,8.50
2017-11-26T04:47:49.648Z,7.70
2017-11-26T04:48:51.720Z,7.50
2017-11-26T04:49:53.036Z,8.00
2017-11-26T04:50:55.393Z,8.40
2017-11-26T04:51:57.458Z,7.63
2017-11-26T04:52:59.489Z,7.90
2017-11-26T04:54:00.794Z,6.67
2017-11-26T04:55:02.110Z,6.73
2017-11-26T04:56:03.863Z,6.73
2017-11-26T04:57:05.156Z,6.90
2017-11-26T04:58:06.441Z,7.80
2017-11-26T04:59:07.796Z,6.90
2017-11-26T05:00:09.160Z,9.07
2017-11-26T05:01:10.864Z,8.67
2017-11-26T05:02:12.226Z,8.87
2017-11-26T05:03:13.561Z,8.43
2017-11-26T05:04:14.894Z,7.60
2017-11-26T05:05:16.220Z,8.47
2017-11-26T05:06:17.860Z,10.00
2017-11-26T05:07:19.156Z,10.87
2017-11-26T05:08:21.234Z,9.90
2017-11-26T05:09:22.566Z,9.10
2017-11-26T05:10:24.605Z,9.23
2017-11-26T05:11:26.958Z,8.47
2017-11-26T05:12:28.282Z,9.33
2017-11-26T05:13:29.595Z,9.43
2017-11-26T05:14:30.904Z,8.43
2017-11-26T05:15:32.224Z,8.70
2017-11-26T05:16:34.537Z,9.33
2017-11-26T05:17:35.846Z,9.50
2017-11-26T05:18:37.156Z,9.47
2017-11-26T05:19:39.229Z,9.37
2017-11-26T05:20:40.541Z,10.13
2017-11-26T05:21:42.171Z,9.90
2017-11-26T05:22:43.488Z,9.27
2017-11-26T05:23:44.769Z,8.53
2017-11-26T05:24:46.812Z,10.50
2017-11-26T05:25:48.172Z,10.00
2017-11-26T05:26:50.505Z,9.73
2017-11-26T05:27:51.833Z,10.80
2017-11-26T05:28:53.145Z,9.07
2017-11-26T05:29:54.458Z,10.40
2017-11-26T05:30:55.754Z,8.87
2017-11-26T05:31:57.084Z,9.17
2017-11-26T05:32:58.395Z,8.93
2017-11-26T05:33:59.737Z,10.23
2017-11-26T05:35:01.090Z,10.50
2017-11-26T05:36:02.417Z,11.20
2017-11-26T05:37:04.061Z,9.53
2017-11-26T05:38:05.401Z,9.40
2017-11-26T05:39:06.713Z,8.47
2017-11-26T05:40:08.038Z,9.60
2017-11-26T05:41:10.106Z,9.70
2017-11-26T05:42:11.640Z,10.40
2017-11-26T05:43:13.036Z,9.93
2017-11-26T05:44:15.025Z,10.77
2017-11-26T05:45:17.151Z,10.57
2017-11-26T05:46:18.462Z,11.53
2017-11-26T05:47:20.106Z,10.87
2017-11-26T05:48:21.431Z,11.37
2017-11-26T05:49:22.746Z,11.97
2017-11-26T05:50:24.810Z,10.93
2017-11-26T05:51:26.116Z,10.40
2017-11-26T05:52:28.236Z,10.80
2017-11-26T05:53:29.558Z,11.47
2017-11-26T05:54:30.878Z,10.93
2017-11-26T05:55:32.177Z,10.70
2017-11-26T05:56:33.479Z,11.03
2017-11-26T05:57:35.216Z,12.13
2017-11-26T05:58:36.528Z,11.23
2017-11-26T05:59:38.580Z,11.77
2017-11-26T06:00:40.652Z,10.43
2017-11-26T06:01:41.961Z,10.87
2017-11-26T06:02:44.297Z,10.70
2017-11-26T06:03:45.628Z,11.40
2017-11-26T06:04:46.920Z,12.27
2017-11-26T06:05:48.241Z,10.83
2017-11-26T06:06:50.280Z,12.60
2017-11-26T06:07:51.880Z,11.50
2017-11-26T06:08:53.170Z,13.00
2017-11-26T06:09:54.480Z,12.87
2017-11-26T06:10:55.789Z,12.90
2017-11-26T06:11:57.117Z,12.57
2017-11-26T06:12:58.703Z,13.40
2017-11-26T06:14:00.019Z,11.20
2017-11-26T06:15:01.333Z,12.90
2017-11-26T06:16:02.634Z,11.37
2017-11-26T06:17:03.960Z,11.67
2017-11-26T06:18:05.574Z,11.37
2017-11-26T06:19:06.874Z,11.50
2017-11-26T06:20:09.001Z,11.77
2017-11-26T06:21:10.327Z,11.80
2017-11-26T06:22:11.673Z,11.80
2017-11-26T06:23:13.039Z,11.70
2017-11-26T06:24:15.098Z,13.33
2017-11-26T06:25:17.221Z,12.60
2017-11-26T06:26:18.559Z,12.13
2017-11-26T06:27:19.889Z,15.37
2017-11-26T06:28:22.229Z,15.27
2017-11-26T06:29:23.534Z,13.47
2017-11-26T06:30:25.576Z,14.43
2017-11-26T06:31:27.650Z,12.33
2017-11-26T06:32:29.737Z,11.77
2017-11-26T06:33:31.478Z,12.17
2017-11-26T06:34:32.768Z,12.23
2017-11-26T06:35:34.103Z,11.37
2017-11-26T06:36:35.401Z,12.77
2017-11-26T06:37:36.729Z,12.67
2017-11-26T06:38:38.353Z,12.93
2017-11-26T06:39:40.420Z,13.70
2017-11-26T06:40:41.781Z,13.23
2017-11-26T06:41:43.073Z,13.00
2017-11-26T06:42:45.115Z,13.07
2017-11-26T06:43:47.486Z,13.47
2017-11-26T06:44:49.537Z,14.00
2017-11-26T06:45:50.852Z,12.13
2017-11-26T06:46:52.177Z,13.67
2017-11-26T06:47:54.239Z,13.20
2017-11-26T06:48:55.576Z,12.97
2017-11-26T06:49:56.919Z,11.27
2017-11-26T06:50:58.229Z,12.37
2017-11-26T06:51:59.530Z,13.33
2017-11-26T06:53:01.626Z,12.37
2017-11-26T06:54:03.260Z,12.20
2017-11-26T06:55:04.609Z,12.23
2017-11-26T06:56:05.897Z,12.70
2017-11-26T06:57:07.964Z,12.70
2017-11-26T06:58:10.029Z,12.90
2017-11-26T06:59:11.763Z,12.50
2017-11-26T07:00:13.817Z,13.93
2017-11-26T07:01:15.869Z,11.53
2017-11-26T07:02:17.959Z,13.47
2017-11-26T07:03:19.281Z,14.40
2017-11-26T07:04:20.949Z,13.10
2017-11-26T07:05:22.238Z,12.10
2017-11-26T07:06:23.537Z,12.07
2017-11-26T07:07:24.901Z,11.07
2017-11-26T07:08:26.230Z,12.43
2017-11-26T07:09:28.665Z,11.87
2017-11-26T07:10:29.960Z,12.03
2017-11-26T07:11:32.056Z,13.53
2017-11-26T07:12:33.400Z,12.20
2017-11-26T07:13:34.731Z,12.20
2017-11-26T07:14:36.307Z,12.47
2017-11-26T07:15:37.607Z,12.23
2017-11-26T07:16:38.916Z,12.20
2017-11-26T07:17:40.972Z,11.67
2017-11-26T07:18:43.015Z,12.53
2017-11-26T07:19:44.381Z,12.17
2017-11-26T07:20:45.688Z,13.27
2017-11-26T07:21:47.026Z,13.27
2017-11-26T07:22:49.073Z,14.80
2017-11-26T07:23:51.874Z,13.43
2017-11-26T07:24:54.173Z,12.20
2017-11-26T07:25:55.510Z,13.67
2017-11-26T07:26:56.822Z,12.93
2017-11-26T07:27:58.133Z,12.63
2017-11-26T07:28:59.410Z,12.77
2017-11-26T07:30:01.063Z,12.83
2017-11-26T07:31:02.409Z,13.03
2017-11-26T07:32:03.722Z,13.10
2017-11-26T07:33:05.022Z,12.40
2017-11-26T07:34:06.342Z,13.53
2017-11-26T07:35:08.001Z,13.70
2017-11-26T07:36:09.313Z,12.83
2017-11-26T07:37:10.602Z,11.70
2017-11-26T07:38:12.625Z,10.57
2017-11-26T07:39:13.948Z,11.60
2017-11-26T07:40:15.572Z,10.43
2017-11-26T07:41:16.865Z,11.27
2017-11-26T07:42:18.936Z,10.57
2017-11-26T07:43:21.010Z,10.93
2017-11-26T07:44:22.329Z,9.83
2017-11-26T07:45:23.728Z,9.97
2017-11-26T07:46:25.021Z,9.47
2017-11-26T07:47:26.348Z,10.33
2017-11-26T07:48:27.660Z,8.53
2017-11-26T07:49:28.949Z,9.63
2017-11-26T07:50:30.781Z,7.73
2017-11-26T07:51:32.081Z,8.10
2017-11-26T07:52:33.410Z,7.40
2017-11-26T07:53:34.701Z,7.40
2017-11-26T07:54:35.998Z,6.43
2017-11-26T07:55:37.329Z,6.83
2017-11-26T07:56:38.619Z,6.40
2017-11-26T07:57:40.051Z,6.90
2017-11-26T07:58:41.353Z,7.40
2017-11-26T07:59:42.667Z,7.63
2017-11-26T08:00:44.351Z,6.33
2017-11-26T08:01:46.414Z,8.50
2017-11-26T08:02:48.522Z,13.07
2017-11-26T08:03:49.846Z,13.30
2017-11-26T08:04:51.243Z,12.60
2017-11-26T08:05:53.615Z,12.30
2017-11-26T08:06:54.931Z,12.37
2017-11-26T08:07:57.064Z,11.70
2017-11-26T08:08:59.881Z,14.10
2017-11-26T08:10:01.242Z,12.77
2017-11-26T08:11:02.858Z,11.40
2017-11-26T08:12:04.943Z,13.57
2017-11-26T08:13:06.269Z,11.40
2017-11-26T08:14:07.596Z,12.17
2017-11-26T08:15:08.976Z,10.50
2017-11-26T08:16:10.597Z,11.40
2017-11-26T08:17:11.918Z,10.70
2017-11-26T08:18:13.241Z,10.13
2017-11-26T08:19:15.283Z,10.57
2017-11-26T08:20:16.684Z,9.50
2017-11-26T08:21:18.334Z,10.03
2017-11-26T08:22:19.656Z,9.67
2017-11-26T08:23:20.992Z,9.00
2017-11-26T08:24:23.111Z,8.80
2017-11-26T08:25:25.178Z,8.97
2017-11-26T08:26:26.582Z,9.40
2017-11-26T08:27:27.909Z,9.67
2017-11-26T08:28:29.233Z,9.97
2017-11-26T08:29:30.578Z,9.03
2017-11-26T08:30:31.906Z,9.67
2017-11-26T08:31:33.497Z,9.93
2017-11-26T08:32:34.829Z,9.83
2017-11-26T08:33:36.137Z,9.00
2017-11-26T08:34:37.453Z,9.03
2017-11-26T08:35:38.749Z,7.90
2017-11-26T08:36:40.074Z,8.80
2017-11-26T08:37:41.373Z,12.47
2017-11-26T08:38:42.670Z,14.27
2017-11-26T08:39:44.737Z,11.87
2017-11-26T08:40:46.094Z,12.70
2017-11-26T08:41:47.776Z,11.43
2017-11-26T08:42:49.108Z,11.03
2017-11-26T08:43:50.441Z,10.63
2017-11-26T08:44:51.766Z,11.37
2017-11-26T08:45:53.099Z,9.80
2017-11-26T08:46:54.673Z,9.97
2017-11-26T08:47:56.011Z,10.20
2017-11-26T08:48:57.343Z,10.73
2017-11-26T08:49:58.665Z,9.30
2017-11-26T08:50:59.977Z,11.10
2017-11-26T08:52:01.591Z,11.00
2017-11-26T08:53:02.921Z,11.27
2017-11-26T08:54:04.287Z,9.77
2017-11-26T08:55:06.344Z,9.60
2017-11-26T08:56:08.416Z,9.57
2017-11-26T08:57:09.777Z,9.07
2017-11-26T08:58:11.093Z,9.20
2017-11-26T08:59:12.464Z,11.40
2017-11-26T09:00:13.774Z,10.70
2017-11-26T09:01:15.121Z,10.47
2017-11-26T09:02:16.733Z,9.90
2017-11-26T09:03:18.802Z,8.43
2017-11-26T09:04:20.133Z,9.43
2017-11-26T09:05:22.186Z,9.77
2017-11-26T09:06:40.099Z,8.63
2017-11-26T09:07:46.222Z,8.70
2017-11-26T09:08:47.560Z,8.57
2017-11-26T09:09:48.899Z,10.47
2017-11-26T09:10:50.253Z,10.00
2017-11-26T09:11:51.594Z,10.27
2017-11-26T09:12:53.031Z,8.77
2017-11-26T09:13:54.357Z,9.90
2017-11-26T09:14:55.697Z,10.17
2017-11-26T09:15:57.021Z,9.37
2017-11-26T09:16:58.355Z,11.40
2017-11-26T09:17:59.736Z,10.07
2017-11-26T09:19:01.817Z,8.80
2017-11-26T09:20:03.150Z,10.07
2017-11-26T09:21:04.473Z,9.13
2017-11-26T09:22:06.533Z,11.07
2017-11-26T09:23:08.149Z,11.27
2017-11-26T09:24:09.453Z,12.10
2017-11-26T09:25:10.758Z,11.07
2017-11-26T09:26:12.812Z,13.27
2017-11-26T09:27:14.876Z,12.10
2017-11-26T09:28:16.254Z,13.13
2017-11-26T09:29:17.565Z,11.13
2017-11-26T09:30:18.877Z,9.67
2017-11-26T09:31:20.905Z,9.93
2017-11-26T09:32:22.202Z,9.03
2017-11-26T09:33:23.573Z,9.80
2017-11-26T09:34:24.874Z,9.03
2017-11-26T09:35:26.190Z,8.07
2017-11-26T09:36:28.223Z,8.47
2017-11-26T09:37:29.517Z,8.47
2017-11-26T09:38:31.082Z,8.83
2017-11-26T09:39:32.400Z,9.70
2017-11-26T09:40:33.697Z,10.07
2017-11-26T09:41:35.757Z,8.90
2017-11-26T09:42:37.058Z,8.90
2017-11-26T09:43:38.677Z,8.37
2017-11-26T09:44:40.028Z,8.83
2017-11-26T09:45:41.372Z,8.90
2017-11-26T09:46:42.680Z,9.10
2017-11-26T09:47:43.999Z,8.83
2017-11-26T09:48:45.601Z,9.27
2017-11-26T09:49:46.910Z,8.87
2017-11-26T09:50:48.213Z,8.37
2017-11-26T09:51:49.501Z,8.27
2017-11-26T09:52:50.803Z,10.17
2017-11-26T09:53:52.770Z,9.80
2017-11-26T09:54:54.082Z,9.30
2017-11-26T09:55:55.378Z,9.90
2017-11-26T09:56:56.678Z,8.93
2017-11-26T09:57:57.972Z,10.13
2017-11-26T09:59:00.299Z,9.37
2017-11-26T10:00:01.690Z,10.80
2017-11-26T10:01:03.006Z,10.90
2017-11-26T10:02:05.040Z,10.10
2017-11-26T10:03:06.336Z,9.10
2017-11-26T10:04:07.929Z,8.83
2017-11-26T10:05:09.265Z,8.83
2017-11-26T10:06:10.604Z,10.57
2017-11-26T10:07:11.917Z,8.93
2017-11-26T10:08:13.207Z,9.77
2017-11-26T10:09:14.562Z,9.43
2017-11-26T10:10:15.840Z,7.43
2017-11-26T10:11:17.179Z,8.33
2017-11-26T10:12:18.476Z,7.97
2017-11-26T10:13:19.818Z,7.87
2017-11-26T10:14:21.217Z,8.70
2017-11-26T10:15:22.529Z,7.03
2017-11-26T10:16:23.833Z,7.57
2017-11-26T10:17:25.139Z,7.63
2017-11-26T10:18:26.483Z,7.57
2017-11-26T10:19:28.804Z,6.97
2017-11-26T10:20:30.108Z,5.80
2017-11-26T10:21:31.437Z,6.10
2017-11-26T10:22:32.737Z,8.53
2017-11-26T10:23:34.785Z,10.00
2017-11-26T10:24:36.150Z,9.67
2017-11-26T10:25:38.191Z,9.47
2017-11-26T10:26:39.544Z,10.60
2017-11-26T10:27:41.605Z,9.10
2017-11-26T10:28:43.685Z,9.67
2017-11-26T10:29:45.339Z,13.40
2017-11-26T10:30:46.650Z,16.07
2017-11-26T10:31:48.701Z,15.17
2017-11-26T10:32:50.768Z,13.20
2017-11-26T10:33:52.062Z,10.47
2017-11-26T10:34:53.434Z,8.37
2017-11-26T10:35:55.501Z,9.33
2017-11-26T10:36:56.834Z,8.73
2017-11-26T10:37:58.166Z,8.27
2017-11-26T10:39:00.209Z,6.40
2017-11-26T10:40:02.674Z,6.70
2017-11-26T10:41:04.713Z,6.47
2017-11-26T10:42:06.026Z,6.20
2017-11-26T10:43:07.331Z,5.90
2017-11-26T10:44:08.648Z,5.80
2017-11-26T10:45:10.765Z,5.17
2017-11-26T10:46:12.077Z,5.57
2017-11-26T10:47:13.400Z,5.47
2017-11-26T10:48:14.705Z,4.80
2017-11-26T10:49:16.776Z,5.77
2017-11-26T10:50:19.201Z,5.10
2017-11-26T10:51:20.505Z,5.53
2017-11-26T10:52:21.825Z,5.50
2017-11-26T10:53:23.162Z,5.47
2017-11-26T10:54:24.536Z,5.23
2017-11-26T10:55:26.366Z,5.17
2017-11-26T10:56:27.692Z,5.40
2017-11-26T10:57:29.029Z,4.33
2017-11-26T10:58:30.359Z,4.90
2017-11-26T10:59:32.483Z,5.30
2017-11-26T11:00:33.896Z,5.60
2017-11-26T11:01:35.302Z,5.10
2017-11-26T11:02:36.617Z,4.50
2017-11-26T11:03:38.723Z,4.73
2017-11-26T11:04:40.041Z,4.23
2017-11-26T11:05:41.586Z,4.23
2017-11-26T11:06:42.925Z,4.17
2017-11-26T11:07:44.285Z,3.80
2017-11-26T11:08:45.610Z,4.70
2017-11-26T11:09:46.925Z,4.40
2017-11-26T11:10:49.044Z,4.53
2017-11-26T11:11:50.358Z,4.40
2017-11-26T11:12:51.699Z,4.40
2017-11-26T11:13:53.044Z,4.33
2017-11-26T11:14:54.394Z,4.37
2017-11-26T11:15:55.807Z,5.43
2017-11-26T11:16:57.143Z,5.20
2017-11-26T11:17:58.475Z,4.33
2017-11-26T11:18:59.830Z,3.97
2017-11-26T11:20:01.135Z,4.30
2017-11-26T11:21:02.754Z,4.33
2017-11-26T11:22:04.819Z,4.47
2017-11-26T11:23:06.889Z,4.10
2017-11-26T11:24:08.239Z,3.80
2017-11-26T11:25:09.665Z,3.80
2017-11-26T11:26:11.212Z,3.77
2017-11-26T11:27:12.565Z,3.53
2017-11-26T11:28:13.878Z,3.67
2017-11-26T11:29:15.933Z,3.60
2017-11-26T11:30:18.011Z,3.67
2017-11-26T11:31:20.371Z,3.43
2017-11-26T11:32:21.705Z,3.83
2017-11-26T11:33:23.025Z,3.30
2017-11-26T11:34:25.082Z,3.23
2017-11-26T11:35:27.112Z,3.07
2017-11-26T11:36:28.474Z,3.40
2017-11-26T11:37:30.574Z,3.30
2017-11-26T11:38:31.890Z,2.90
2017-11-26T11:39:33.395Z,2.93
2017-11-26T11:40:35.543Z,3.03
2017-11-26T11:41:37.236Z,3.23
2017-11-26T11:42:38.557Z,3.60
2017-11-26T11:43:39.911Z,2.73
2017-11-26T11:44:41.891Z,2.37
2017-11-26T11:45:43.262Z,2.60
2017-11-26T11:46:44.651Z,2.93
2017-11-26T11:47:45.965Z,2.90
2017-11-26T11:48:48.263Z,3.10
2017-11-26T11:49:49.804Z,2.50
2017-11-26T11:50:51.309Z,2.50
2017-11-26T11:51:52.973Z,2.40
2017-11-26T11:52:54.617Z,2.30
2017-11-26T11:53:56.033Z,2.27
2017-11-26T11:54:58.331Z,2.27
2017-11-26T11:55:59.854Z,2.37
2017-11-26T11:57:01.700Z,2.47
2017-11-26T11:58:03.212Z,2.50
2017-11-26T11:59:05.437Z,2.80
2017-11-26T12:00:06.981Z,2.37
2017-11-26T12:01:08.477Z,2.67
2017-11-26T12:02:10.382Z,2.60
2017-11-26T12:03:11.970Z,2.03
2017-11-26T12:04:13.607Z,2.37
2017-11-26T12:05:15.934Z,2.40
2017-11-26T12:06:17.443Z,2.63
2017-11-26T12:07:19.172Z,2.40
2017-11-26T12:08:20.759Z,2.60
2017-11-26T12:09:22.089Z,2.10
2017-11-26T12:10:23.449Z,2.50
2017-11-26T12:11:24.843Z,2.33
2017-11-26T12:12:26.243Z,2.30
2017-11-26T12:13:27.582Z,2.50
2017-11-26T12:14:28.911Z,2.23
2017-11-26T12:15:30.258Z,2.90
2017-11-26T12:16:31.586Z,2.80
2017-11-26T12:17:33.235Z,2.30
2017-11-26T12:18:34.601Z,2.40
2017-11-26T12:19:36.672Z,2.10
2017-11-26T12:20:38.054Z,2.13
2017-11-26T12:21:39.429Z,2.07
2017-11-26T12:22:41.750Z,2.00
2017-11-26T12:23:43.118Z,2.20
2017-11-26T12:24:44.462Z,2.20
2017-11-26T12:25:45.791Z,1.80
2017-11-26T12:26:47.124Z,1.73
2017-11-26T12:27:48.758Z,1.90
2017-11-26T12:28:50.094Z,1.80
2017-11-26T12:29:51.431Z,1.80
2017-11-26T12:30:52.765Z,1.97
2017-11-26T12:31:54.141Z,1.90
2017-11-26T12:32:56.352Z,2.00
2017-11-26T12:33:57.685Z,2.03
2017-11-26T12:34:59.068Z,2.20
2017-11-26T12:36:00.466Z,2.33
2017-11-26T12:37:01.918Z,2.10
2017-11-26T12:38:03.590Z,1.90
2017-11-26T12:39:04.939Z,1.97
2017-11-26T12:40:06.338Z,1.93
2017-11-26T12:41:07.685Z,1.93
2017-11-26T12:42:09.058Z,2.30
2017-11-26T12:43:10.779Z,2.20
2017-11-26T12:44:12.121Z,2.10
2017-11-26T12:45:13.458Z,2.10
2017-11-26T12:46:14.816Z,1.93
2017-11-26T12:47:16.177Z,1.83
2017-11-26T12:48:18.283Z,1.90
2017-11-26T12:49:19.635Z,2.40
2017-11-26T12:50:20.974Z,2.00
2017-11-26T12:51:22.327Z,2.10
2017-11-26T12:52:23.685Z,2.13
2017-11-26T12:53:25.797Z,2.57
2017-11-26T12:54:27.406Z,2.60
2017-11-26T12:55:28.783Z,2.30
2017-11-26T12:56:30.136Z,2.50
2017-11-26T12:57:31.490Z,2.70
2017-11-26T12:58:33.823Z,2.40
2017-11-26T12:59:35.161Z,3.30
2017-11-26T13:00:36.500Z,3.23
2017-11-26T13:01:37.836Z,3.23
2017-11-26T13:02:39.216Z,3.17
2017-11-26T13:03:41.641Z,2.50
2017-11-26T13:04:43.002Z,2.40
2017-11-26T13:05:44.346Z,2.30
2017-11-26T13:06:45.670Z,3.60
2017-11-26T13:07:47.018Z,3.30
2017-11-26T13:08:48.401Z,4.63
2017-11-26T13:09:49.755Z,3.80
2017-11-26T13:10:51.124Z,3.53
2017-11-26T13:11:52.499Z,3.33
2017-11-26T13:12:53.830Z,3.40
2017-11-26T13:13:56.206Z,2.70
2017-11-26T13:14:57.565Z,2.60
2017-11-26T13:15:58.918Z,2.33
2017-11-26T13:17:00.258Z,2.00
2017-11-26T13:18:01.623Z,2.13
2017-11-26T13:19:02.991Z,2.10
2017-11-26T13:20:05.094Z,2.27
2017-11-26T13:21:06.433Z,2.17
2017-11-26T13:22:07.749Z,1.90
2017-11-26T13:23:09.093Z,2.10
2017-11-26T13:24:10.481Z,2.33
2017-11-26T13:25:12.250Z,1.93
2017-11-26T13:26:14.329Z,2.50
2017-11-26T13:27:15.655Z,2.10
2017-11-26T13:28:17.024Z,1.90
2017-11-26T13:29:18.645Z,2.50
2017-11-26T13:30:19.967Z,2.20
2017-11-26T13:31:22.036Z,2.20
2017-11-26T13:32:23.377Z,2.10
2017-11-26T13:33:24.738Z,1.60
2017-11-26T13:34:26.244Z,2.00
2017-11-26T13:35:27.587Z,1.90
2017-11-26T13:36:28.932Z,2.00
2017-11-26T13:37:30.256Z,2.00
2017-11-26T13:38:33.517Z,1.73
2017-11-26T13:39:34.901Z,1.40
2017-11-26T13:40:36.238Z,1.70
2017-11-26T13:41:37.571Z,1.60
2017-11-26T13:42:38.917Z,1.77